Terminal Aerodrome Forecast
Issued by NWS

Current Version | Previous Version | Text Only | Print | Product List | Glossary On
Versions: 1 2 3 4 5 6 7 8 9 10 11 12 13 14 15 16 17 18 19 20 21 22 23 24 25 26 27
142
FTUS46 KSGX 262106 AAA
TAFSAN
TAF AMD
KSAN 262106Z 2621/2724 29011KT P6SM FEW200 SCT250
     FM270300 31005KT P6SM OVC018
     FM270900 VRB04KT P6SM OVC022
     FM271700 VRB04KT P6SM SCT025
     FM271900 28009KT P6SM FEW025=

USA.gov is the U.S. government's official web portal to all federal, state and local government web resources and services.